Aberdeen, Pennsylvania
Current Conditions -  °F | °C
As of 5:56 AM on Friday 28 Nov 2014 (Local Time) from KMDT Reporting Station
Few Clouds Few Clouds  
Wind Chill: -5°   Ceiling: Unl
Heat Index: -1°   Visibility: 10mi
Dew Point: -7°   Wind: 9mph
Humidity: 64%   Direction: 320°NW
Pressure: 30.19"   Gusts: NA
Location:  40.1674°N, 76.6045°W
Report Text: KMDT 281056Z 32008KT 10SM FEW040 M01/M07 A3019 RMK AO2 SLP227 T10061067
Loading
Personal Weather Stations






























Interactive Weather Map New forecast layout! Learn more

10-Day Weather Forecast

Advertisements
Track Severe Weather on mobile